Time;durP1;ratioP1;P1;durP2;ratioP2;P2;SDS_P1;SDS_P2;PMS_P1;PMS_P2;Temp;Humidity;BMP_temperature;BMP_pressure;BME280_temperature;BME280_humidity;BME280_pressure;Samples;Min_cycle;Max_cycle;Signal;HPM_P1;HPM_P2
2023/05/21 00:01:00;;;;;;;;;;;;;;;20.67;45.85;100807.94;103463;1285;62146;-82
2023/05/21 00:03:29;;;;;;;;;;;;;;;20.67;45.86;100803.34;103687;1285;62072;-82
2023/05/21 00:05:55;;;;;;;;;;;;;;;20.67;45.84;100801.52;103678;1288;73600;-83
2023/05/21 00:08:21;;;;;;;;;;;;;;;20.67;45.73;100799.91;103498;1286;62206;-82
2023/05/21 00:10:47;;;;;;;;;;;;;;;20.67;45.76;100799.38;103432;1292;62709;-83
2023/05/21 00:13:14;;;;;;;;;;;;;;;20.67;45.86;100796.70;103606;1285;63421;-83
2023/05/21 00:15:40;;;;;;;;;;;;;;;20.67;45.76;100798.84;104123;1288;62110;-82
2023/05/21 00:18:05;;;;;;;;;;;;;;;20.67;45.83;100796.52;104237;1285;62091;-82
2023/05/21 00:20:31;;;;;;;;;;;;;;;20.67;45.90;100794.02;104251;1285;62147;-81
2023/05/21 00:22:57;;;;;;;;;;;;;;;20.67;45.78;100789.52;103931;1288;63429;-82
2023/05/21 00:25:22;;;;;;;;;;;;;;;20.68;45.89;100789.84;103388;1288;62165;-82
2023/05/21 00:27:48;;;;;;;;;;;;;;;20.68;45.88;100783.78;103547;1285;62347;-83
2023/05/21 00:30:33;;;;;;;;;;;;;;;20.68;45.76;100783.42;103552;1285;62203;-82
2023/05/21 00:33:01;;;;;;;;;;;;;;;20.68;45.87;100782.69;103598;1285;62121;-82
2023/05/21 00:35:28;;;;;;;;;;;;;;;20.68;45.88;100781.45;103548;1285;62181;-83
2023/05/21 00:37:53;;;;;;;;;;;;;;;20.68;45.83;100780.73;103600;1291;62291;-81
2023/05/21 00:40:19;;;;;;;;;;;;;;;20.67;45.77;100777.89;103814;1288;62309;-83
2023/05/21 00:42:46;;;;;;;;;;;;;;;20.67;45.76;100777.70;103494;1286;62285;-84
2023/05/21 00:45:13;;;;;;;;;;;;;;;20.67;45.86;100774.34;103495;1284;62753;-83
2023/05/21 00:47:40;;;;;;;;;;;;;;;20.67;45.80;100774.33;103583;1285;63423;-82
2023/05/21 00:50:07;;;;;;;;;;;;;;;20.67;45.77;100773.09;103498;1285;76101;-83
2023/05/21 00:52:40;;;;;;;;;;;;;;;20.67;45.77;100775.05;103500;1291;62277;-84
2023/05/21 00:55:06;;;;;;;;;;;;;;;20.67;45.68;100773.11;103675;1288;63273;-84
2023/05/21 00:57:32;;;;;;;;;;;;;;;20.66;45.83;100772.27;103353;1286;62187;-83
2023/05/21 00:59:59;;;;;;;;;;;;;;;20.66;45.78;100774.73;103604;1288;62231;-84
2023/05/21 01:02:28;;;;;;;;;;;;;;;20.66;45.71;100771.52;103693;1284;62198;-82
2023/05/21 01:04:54;;;;;;;;;;;;;;;20.66;45.73;100765.45;103497;1288;62185;-82
2023/05/21 01:07:20;;;;;;;;;;;;;;;20.66;45.70;100763.52;103574;1285;72397;-83
2023/05/21 01:09:47;;;;;;;;;;;;;;;20.66;45.89;100760.31;103521;1286;76223;-82
2023/05/21 01:12:12;;;;;;;;;;;;;;;20.65;45.81;100759.41;103480;1294;62506;-84
2023/05/21 01:14:45;;;;;;;;;;;;;;;20.66;45.76;100755.68;103528;1291;62182;-83
2023/05/21 01:17:11;;;;;;;;;;;;;;;20.65;45.77;100751.94;103650;1286;62185;-83
2023/05/21 01:19:37;;;;;;;;;;;;;;;20.65;45.62;100751.95;103511;1291;62297;-83
2023/05/21 01:22:04;;;;;;;;;;;;;;;20.65;45.77;100754.48;103532;1290;62185;-83
2023/05/21 01:24:30;;;;;;;;;;;;;;;20.65;45.65;100755.19;103574;1286;62191;-83
2023/05/21 01:26:57;;;;;;;;;;;;;;;20.65;45.74;100756.09;103614;1286;62768;-83
2023/05/21 01:29:23;;;;;;;;;;;;;;;20.64;45.63;100756.28;103560;1291;62238;-83
2023/05/21 01:32:24;;;;;;;;;;;;;;;20.64;45.69;100754.84;103645;1291;63492;-82
2023/05/21 01:35:00;;;;;;;;;;;;;;;20.64;45.66;100754.88;102863;1296;62000;-83
2023/05/21 01:37:44;;;;;;;;;;;;;;;20.64;45.81;100753.77;102839;1296;73432;-84
2023/05/21 01:40:13;;;;;;;;;;;;;;;20.64;45.79;100746.99;102912;1296;76364;-82
2023/05/21 01:42:39;;;;;;;;;;;;;;;20.64;45.67;100745.21;102827;1298;62122;-83
2023/05/21 01:45:06;;;;;;;;;;;;;;;20.64;45.76;100744.13;102984;1299;62250;-83
2023/05/21 01:47:32;;;;;;;;;;;;;;;20.64;45.69;100742.52;102850;1292;62332;-82
2023/05/21 01:50:02;;;;;;;;;;;;;;;20.64;45.67;100742.53;102855;1296;74994;-83
2023/05/21 01:52:28;;;;;;;;;;;;;;;20.64;45.73;100743.45;102896;1294;62303;-82
2023/05/21 01:54:55;;;;;;;;;;;;;;;20.64;45.51;100739.50;102811;1298;62203;-82
2023/05/21 01:57:21;;;;;;;;;;;;;;;20.64;45.76;100740.06;102812;1294;73814;-83
2023/05/21 01:59:46;;;;;;;;;;;;;;;20.63;45.75;100735.08;102921;1294;62384;-83
2023/05/21 02:02:13;;;;;;;;;;;;;;;20.64;45.77;100729.31;102921;1297;63264;-83
2023/05/21 02:04:41;;;;;;;;;;;;;;;20.64;45.85;100724.14;102893;1293;63426;-83
2023/05/21 02:07:06;;;;;;;;;;;;;;;20.64;45.69;100721.29;102878;1300;62282;-81
2023/05/21 02:09:32;;;;;;;;;;;;;;;20.63;45.66;100722.77;103182;1290;62230;-82
2023/05/21 02:11:59;;;;;;;;;;;;;;;20.63;45.62;100723.29;103616;1288;63456;-83
2023/05/21 02:14:25;;;;;;;;;;;;;;;20.63;45.61;100720.23;103608;1286;62567;-83
2023/05/21 02:16:51;;;;;;;;;;;;;;;20.63;45.64;100718.10;103648;1286;62579;-83
2023/05/21 02:19:17;;;;;;;;;;;;;;;20.63;45.64;100722.41;103570;1291;62294;-84
2023/05/21 02:21:42;;;;;;;;;;;;;;;20.62;45.60;100725.67;103574;1291;62154;-82
2023/05/21 02:24:08;;;;;;;;;;;;;;;20.63;45.56;100729.04;103503;1291;63485;-83
2023/05/21 02:26:36;;;;;;;;;;;;;;;20.63;45.56;100737.27;103576;1288;62188;-82
2023/05/21 02:29:02;;;;;;;;;;;;;;;20.62;45.65;100739.81;103664;1286;73147;-82
2023/05/21 02:31:28;;;;;;;;;;;;;;;20.62;45.69;100737.14;103624;1288;62073;-83
2023/05/21 02:33:55;;;;;;;;;;;;;;;20.62;45.74;100733.40;103479;1290;62119;-82
2023/05/21 02:36:25;;;;;;;;;;;;;;;20.62;45.79;100731.98;103576;1291;62796;-83
2023/05/21 02:38:53;;;;;;;;;;;;;;;20.62;45.64;100732.48;103470;1291;73535;-82
2023/05/21 02:41:20;;;;;;;;;;;;;;;20.62;45.74;100727.34;103644;1284;75147;-81
2023/05/21 02:43:48;;;;;;;;;;;;;;;20.62;45.74;100728.22;103509;1286;62102;-83
2023/05/21 02:46:14;;;;;;;;;;;;;;;20.62;45.73;100734.83;103606;1288;62172;-83
2023/05/21 02:48:39;;;;;;;;;;;;;;;20.62;45.65;100733.55;103496;1286;62264;-83
2023/05/21 02:51:05;;;;;;;;;;;;;;;20.62;45.73;100735.20;103538;1290;62271;-83
2023/05/21 02:53:31;;;;;;;;;;;;;;;20.62;45.70;100737.70;103470;1294;62847;-83
2023/05/21 02:55:56;;;;;;;;;;;;;;;20.62;45.80;100738.80;103587;1286;63497;-83
2023/05/21 02:58:25;;;;;;;;;;;;;;;20.61;45.63;100742.57;103516;1289;62082;-83
2023/05/21 03:00:51;;;;;;;;;;;;;;;20.62;45.83;100742.02;103445;1291;72336;-83
2023/05/21 03:03:17;;;;;;;;;;;;;;;20.62;45.67;100745.39;103462;1290;76070;-82
2023/05/21 03:05:44;;;;;;;;;;;;;;;20.61;45.62;100749.71;103490;1291;62353;-82
2023/05/21 03:08:10;;;;;;;;;;;;;;;20.61;45.59;100749.17;103539;1290;62540;-82
2023/05/21 03:10:35;;;;;;;;;;;;;;;20.62;45.66;100751.66;103498;1291;62211;-82
2023/05/21 03:13:03;;;;;;;;;;;;;;;20.62;45.84;100753.98;103560;1291;62197;-82
2023/05/21 03:15:32;;;;;;;;;;;;;;;20.62;45.73;100755.95;103615;1292;62920;-84
2023/05/21 03:17:58;;;;;;;;;;;;;;;20.62;45.65;100757.93;103524;1286;62097;-83
2023/05/21 03:20:44;;;;;;;;;;;;;;;20.62;45.63;100758.62;103486;1286;74626;-83
2023/05/21 03:23:12;;;;;;;;;;;;;;;20.62;45.74;100758.28;103674;1291;62258;-82
2023/05/21 03:25:38;;;;;;;;;;;;;;;20.63;45.66;100759.47;103396;1291;62089;-83
2023/05/21 03:28:03;;;;;;;;;;;;;;;20.62;45.66;100760.39;103530;1291;62246;-83
2023/05/21 03:30:29;;;;;;;;;;;;;;;20.63;45.79;100761.61;103495;1291;62180;-81
2023/05/21 03:32:55;;;;;;;;;;;;;;;20.63;45.72;100760.69;103528;1291;62181;-82
2023/05/21 03:35:20;;;;;;;;;;;;;;;20.62;45.64;100760.55;103515;1290;62321;-83
2023/05/21 03:37:48;;;;;;;;;;;;;;;20.63;45.74;100760.17;103669;1289;62190;-82
2023/05/21 03:40:14;;;;;;;;;;;;;;;20.63;45.66;100759.98;103526;1289;62086;-82
2023/05/21 03:42:40;;;;;;;;;;;;;;;20.63;45.66;100761.06;103646;1289;62188;-83
2023/05/21 03:45:06;;;;;;;;;;;;;;;20.63;45.60;100760.00;103674;1286;62288;-83
2023/05/21 03:47:31;;;;;;;;;;;;;;;20.62;45.70;100758.94;103594;1292;62551;-83
2023/05/21 03:49:57;;;;;;;;;;;;;;;20.63;45.83;100762.83;103513;1289;62174;-84
2023/05/21 03:52:23;;;;;;;;;;;;;;;20.63;45.62;100763.35;103601;1291;62506;-82
2023/05/21 03:54:51;;;;;;;;;;;;;;;20.62;45.73;100766.81;103592;1286;72509;-82
2023/05/21 03:57:20;;;;;;;;;;;;;;;20.63;45.80;100770.88;103515;1291;75701;-83
2023/05/21 03:59:45;;;;;;;;;;;;;;;20.63;45.62;100773.37;103572;1286;62242;-83
2023/05/21 04:02:11;;;;;;;;;;;;;;;20.64;45.79;100771.20;103535;1286;62766;-82
2023/05/21 04:04:37;;;;;;;;;;;;;;;20.63;45.66;100767.79;103543;1286;62205;-83
2023/05/21 04:07:03;;;;;;;;;;;;;;;20.63;45.84;100764.94;103715;1289;62805;-83
2023/05/21 04:09:29;;;;;;;;;;;;;;;20.64;45.61;100760.45;103377;1289;62287;-84
2023/05/21 04:11:54;;;;;;;;;;;;;;;20.64;45.69;100760.45;103106;1294;62229;-84
2023/05/21 04:14:22;;;;;;;;;;;;;;;20.64;45.71;100756.48;103107;1294;62181;-82
2023/05/21 04:16:47;;;;;;;;;;;;;;;20.64;45.63;100756.29;103140;1294;72623;-83
2023/05/21 04:19:13;;;;;;;;;;;;;;;20.65;45.79;100753.05;103062;1295;62371;-82
2023/05/21 04:21:39;;;;;;;;;;;;;;;20.65;45.81;100752.49;103342;1292;63299;-83
2023/05/21 04:24:05;;;;;;;;;;;;;;;20.65;45.89;100752.27;102949;1295;62225;-82
2023/05/21 04:26:33;;;;;;;;;;;;;;;20.66;45.77;100749.75;103042;1290;62346;-82
2023/05/21 04:28:59;;;;;;;;;;;;;;;20.66;45.75;100750.29;103152;1295;62692;-83
2023/05/21 04:31:27;;;;;;;;;;;;;;;20.67;45.79;100751.48;103307;1289;62479;-83
2023/05/21 04:33:52;;;;;;;;;;;;;;;20.67;45.95;100751.27;103280;1293;62695;-82
2023/05/21 04:36:27;;;;;;;;;;;;;;;20.67;45.88;100751.98;103034;1295;62143;-83
2023/05/21 04:38:55;;;;;;;;;;;;;;;20.68;45.70;100751.73;103256;1289;75049;-83
2023/05/21 04:41:20;;;;;;;;;;;;;;;20.68;45.78;100750.14;103223;1294;62283;-83
2023/05/21 04:43:46;;;;;;;;;;;;;;;20.69;45.72;100753.12;103100;1288;63375;-82
2023/05/21 04:46:12;;;;;;;;;;;;;;;20.69;45.71;100751.33;103019;1294;62288;-83
2023/05/21 04:48:39;;;;;;;;;;;;;;;20.70;45.68;100751.44;103663;1284;62275;-83
2023/05/21 04:51:05;;;;;;;;;;;;;;;20.71;45.80;100750.64;103603;1290;62201;-82
2023/05/21 04:53:32;;;;;;;;;;;;;;;20.71;45.94;100754.02;103488;1291;62522;-82
2023/05/21 04:55:58;;;;;;;;;;;;;;;20.72;45.74;100755.23;103676;1286;62108;-82
2023/05/21 04:58:23;;;;;;;;;;;;;;;20.72;45.83;100755.03;103558;1291;62252;-84
2023/05/21 05:00:50;;;;;;;;;;;;;;;20.73;45.83;100755.53;103547;1291;62201;-83
2023/05/21 05:03:16;;;;;;;;;;;;;;;20.74;45.83;100758.52;103734;1286;62114;-83
2023/05/21 05:05:41;;;;;;;;;;;;;;;20.74;45.70;100759.71;103649;1289;62330;-83
2023/05/21 05:08:07;;;;;;;;;;;;;;;20.75;45.85;100759.14;103520;1285;73579;-82
2023/05/21 05:10:32;;;;;;;;;;;;;;;20.76;45.72;100757.60;103599;1288;63367;-83
2023/05/21 05:12:58;;;;;;;;;;;;;;;20.77;45.73;100759.92;103508;1286;62200;-82
2023/05/21 05:15:25;;;;;;;;;;;;;;;20.78;45.74;100757.32;103344;1292;62315;-82
2023/05/21 05:17:50;;;;;;;;;;;;;;;20.79;45.79;100757.30;103598;1291;62205;-83
2023/05/21 05:20:16;;;;;;;;;;;;;;;20.79;45.74;100757.08;103536;1291;62187;-83
2023/05/21 05:22:42;;;;;;;;;;;;;;;20.80;45.88;100756.63;103478;1291;76552;-83
2023/05/21 05:25:07;;;;;;;;;;;;;;;20.82;45.76;100754.73;103643;1288;62228;-83
2023/05/21 05:27:33;;;;;;;;;;;;;;;20.83;45.74;100759.84;103119;1290;62665;-83
2023/05/21 05:29:58;;;;;;;;;;;;;;;20.84;45.84;100757.64;103007;1293;62217;-83
2023/05/21 05:32:24;;;;;;;;;;;;;;;20.85;45.76;100753.09;103143;1290;62307;-84
2023/05/21 05:34:50;;;;;;;;;;;;;;;20.86;45.82;100751.61;103056;1293;76187;-83
2023/05/21 05:37:15;;;;;;;;;;;;;;;20.86;45.89;100754.43;103034;1293;62369;-82
2023/05/21 05:39:41;;;;;;;;;;;;;;;20.87;45.73;100754.16;103024;1289;62139;-82
2023/05/21 05:42:07;;;;;;;;;;;;;;;20.88;45.78;100750.72;102906;1295;62265;-82
2023/05/21 05:44:35;;;;;;;;;;;;;;;20.90;45.84;100752.01;103028;1292;62251;-82
2023/05/21 05:47:01;;;;;;;;;;;;;;;20.90;45.79;100752.20;103065;1294;62243;-83
2023/05/21 05:49:26;;;;;;;;;;;;;;;20.91;45.76;100750.85;103080;1291;62774;-84
2023/05/21 05:51:52;;;;;;;;;;;;;;;20.92;45.72;100750.98;102995;1291;62370;-83
2023/05/21 05:54:18;;;;;;;;;;;;;;;20.92;45.78;100748.98;103169;1294;63242;-83
2023/05/21 05:56:47;;;;;;;;;;;;;;;20.93;45.81;100749.67;102979;1294;76746;-82
2023/05/21 05:59:12;;;;;;;;;;;;;;;20.94;45.80;100750.84;103352;1291;62264;-82
2023/05/21 06:01:38;;;;;;;;;;;;;;;20.94;45.87;100752.80;103501;1286;63428;-82
2023/05/21 06:04:04;;;;;;;;;;;;;;;20.95;45.66;100752.41;103475;1291;62186;-83
2023/05/21 06:06:32;;;;;;;;;;;;;;;20.95;45.74;100747.19;103627;1286;62222;-83
2023/05/21 06:09:01;;;;;;;;;;;;;;;20.96;45.84;100750.15;103505;1291;62207;-83
2023/05/21 06:11:27;;;;;;;;;;;;;;;20.97;45.78;100748.48;103758;1288;62011;-83
2023/05/21 06:13:53;;;;;;;;;;;;;;;20.97;45.77;100743.99;103511;1285;62279;-83
2023/05/21 06:16:18;;;;;;;;;;;;;;;20.98;45.74;100743.77;103539;1284;62383;-84
2023/05/21 06:18:44;;;;;;;;;;;;;;;20.98;45.83;100741.77;103522;1290;62210;-82
2023/05/21 06:21:12;;;;;;;;;;;;;;;20.99;45.79;100741.02;103563;1286;62951;-83
2023/05/21 06:23:38;;;;;;;;;;;;;;;20.99;45.77;100744.03;103671;1285;61996;-83
2023/05/21 06:26:11;;;;;;;;;;;;;;;21.00;45.78;100738.79;103588;1288;72531;-82
2023/05/21 06:28:37;;;;;;;;;;;;;;;21.00;45.89;100738.09;103555;1288;62194;-83
2023/05/21 06:31:02;;;;;;;;;;;;;;;21.01;45.88;100737.85;103658;1288;62206;-83
2023/05/21 06:33:28;;;;;;;;;;;;;;;21.01;45.87;100732.29;103682;1285;63404;-83
2023/05/21 06:35:54;;;;;;;;;;;;;;;21.01;46.01;100723.87;103489;1291;62265;-82
2023/05/21 06:38:21;;;;;;;;;;;;;;;21.02;45.88;100715.21;103667;1284;72351;-83
2023/05/21 06:40:47;;;;;;;;;;;;;;;21.02;45.84;100718.64;103554;1285;75102;-83
2023/05/21 06:43:13;;;;;;;;;;;;;;;21.02;45.88;100718.62;103478;1289;62484;-82
2023/05/21 06:45:38;;;;;;;;;;;;;;;21.02;45.92;100716.13;103509;1291;62182;-82
2023/05/21 06:48:04;;;;;;;;;;;;;;;21.01;45.89;100712.38;103454;1291;62273;-83
2023/05/21 06:50:30;;;;;;;;;;;;;;;21.02;45.89;100712.88;103604;1285;62191;-83
2023/05/21 06:52:56;;;;;;;;;;;;;;;21.03;45.85;100710.13;103421;1289;62199;-83
2023/05/21 06:55:21;;;;;;;;;;;;;;;21.03;46.02;100703.16;103591;1291;62312;-83
2023/05/21 06:57:47;;;;;;;;;;;;;;;21.02;45.88;100702.10;103540;1291;63239;-83
2023/05/21 07:00:13;;;;;;;;;;;;;;;21.03;45.87;100707.77;103568;1288;62194;-82
2023/05/21 07:02:39;;;;;;;;;;;;;;;21.03;45.97;100705.80;103546;1288;62782;-83
2023/05/21 07:05:05;;;;;;;;;;;;;;;21.03;45.93;100700.61;103678;1288;63314;-81
2023/05/21 07:07:34;;;;;;;;;;;;;;;21.03;45.95;100697.41;102942;1285;893363;-82
2023/05/21 07:09:59;;;;;;;;;;;;;;;21.03;45.91;100695.07;103552;1285;63471;-83
2023/05/21 07:12:25;;;;;;;;;;;;;;;21.03;45.83;100697.77;103579;1291;63450;-83
2023/05/21 07:14:51;;;;;;;;;;;;;;;21.04;45.86;100693.77;103464;1285;62131;-83
2023/05/21 07:17:16;;;;;;;;;;;;;;;21.03;45.92;100686.29;103409;1290;62214;-83
2023/05/21 07:19:42;;;;;;;;;;;;;;;21.03;45.91;100684.48;103577;1288;62355;-83
2023/05/21 07:22:11;;;;;;;;;;;;;;;21.04;45.96;100685.85;103512;1286;70940;-82
2023/05/21 07:24:37;;;;;;;;;;;;;;;21.04;45.89;100681.40;103488;1286;74978;-82
2023/05/21 07:27:06;;;;;;;;;;;;;;;21.04;45.86;100684.61;103549;1286;62772;-82
2023/05/21 07:29:32;;;;;;;;;;;;;;;21.04;45.94;100678.92;103531;1290;62176;-83
2023/05/21 07:31:59;;;;;;;;;;;;;;;21.04;45.99;100677.64;103402;1291;62224;-84
2023/05/21 07:34:24;;;;;;;;;;;;;;;21.04;45.93;100678.75;103515;1289;63198;-83
2023/05/21 07:36:50;;;;;;;;;;;;;;;21.04;46.06;100682.48;103565;1285;62107;-84
2023/05/21 07:39:16;;;;;;;;;;;;;;;21.04;45.95;100676.60;103629;1285;62111;-82
2023/05/21 07:41:45;;;;;;;;;;;;;;;21.03;45.81;100681.63;103463;1285;62813;-83
2023/05/21 07:44:10;;;;;;;;;;;;;;;21.04;45.98;100677.99;103512;1285;63377;-82
2023/05/21 07:46:36;;;;;;;;;;;;;;;21.04;45.95;100674.98;103459;1291;62225;-82
2023/05/21 07:49:01;;;;;;;;;;;;;;;21.04;45.99;100674.59;103567;1291;62805;-83
2023/05/21 07:51:27;;;;;;;;;;;;;;;21.04;46.00;100678.16;103596;1288;63277;-83
2023/05/21 07:53:55;;;;;;;;;;;;;;;21.04;46.00;100674.94;103555;1285;62268;-83
2023/05/21 07:56:21;;;;;;;;;;;;;;;21.04;46.11;100672.80;103578;1284;76144;-83
2023/05/21 07:58:48;;;;;;;;;;;;;;;21.04;45.90;100672.08;103587;1291;62206;-83
2023/05/21 08:01:16;;;;;;;;;;;;;;;21.04;46.02;100669.21;103569;1286;62178;-81
2023/05/21 08:03:41;;;;;;;;;;;;;;;21.05;45.91;100674.21;103567;1287;72453;-83
2023/05/21 08:06:10;;;;;;;;;;;;;;;21.05;45.94;100674.02;103485;1285;76276;-82
2023/05/21 08:08:35;;;;;;;;;;;;;;;21.05;46.03;100675.63;103502;1291;62289;-83
2023/05/21 08:11:01;;;;;;;;;;;;;;;21.04;45.90;100680.11;103498;1286;63350;-83
2023/05/21 08:13:27;;;;;;;;;;;;;;;21.05;45.90;100682.08;103593;1288;62188;-82
2023/05/21 08:15:52;;;;;;;;;;;;;;;21.05;45.79;100685.64;103550;1285;62239;-83
2023/05/21 08:18:18;;;;;;;;;;;;;;;21.05;45.94;100683.69;103698;1288;63470;-82
2023/05/21 08:20:44;;;;;;;;;;;;;;;21.05;45.77;100688.33;103650;1285;62194;-83
2023/05/21 08:23:10;;;;;;;;;;;;;;;21.04;45.94;100686.73;103666;1285;62300;-83
2023/05/21 08:25:35;;;;;;;;;;;;;;;21.05;46.08;100692.27;103479;1291;62278;-84
2023/05/21 08:28:01;;;;;;;;;;;;;;;21.05;45.94;100685.80;103474;1286;62862;-83
2023/05/21 08:30:26;;;;;;;;;;;;;;;21.05;45.80;100686.70;103523;1285;62180;-83
2023/05/21 08:32:53;;;;;;;;;;;;;;;21.05;46.10;100685.27;103615;1285;62207;-83
2023/05/21 08:35:21;;;;;;;;;;;;;;;21.05;45.89;100688.52;103582;1285;62906;-82
2023/05/21 08:37:47;;;;;;;;;;;;;;;21.05;45.96;100689.05;103509;1288;73657;-83
2023/05/21 08:40:12;;;;;;;;;;;;;;;21.04;45.93;100683.88;103522;1285;62199;-83
2023/05/21 08:42:45;;;;;;;;;;;;;;;21.05;46.03;100686.00;103497;1285;62143;-83
2023/05/21 08:45:12;;;;;;;;;;;;;;;21.05;45.96;100686.38;103560;1286;62361;-84
2023/05/21 08:47:40;;;;;;;;;;;;;;;21.04;45.87;100681.91;103618;1285;73376;-82
2023/05/21 08:50:10;;;;;;;;;;;;;;;21.05;45.97;100684.55;103700;1285;76230;-82
2023/05/21 08:52:35;;;;;;;;;;;;;;;21.05;45.96;100687.62;103634;1286;62176;-83
2023/05/21 08:55:02;;;;;;;;;;;;;;;21.04;46.01;100685.48;103526;1285;63693;-83
2023/05/21 08:57:28;;;;;;;;;;;;;;;21.04;45.94;100681.19;103549;1285;62608;-80
2023/05/21 08:59:54;;;;;;;;;;;;;;;21.05;45.99;100680.80;103644;1288;62193;-83
2023/05/21 09:02:20;;;;;;;;;;;;;;;21.05;45.99;100682.80;103536;1285;62293;-83
2023/05/21 09:04:48;;;;;;;;;;;;;;;21.05;46.04;100680.83;103536;1291;62148;-83
2023/05/21 09:07:15;;;;;;;;;;;;;;;21.05;45.88;100683.47;103602;1287;62172;-84
2023/05/21 09:10:01;;;;;;;;;;;;;;;21.05;45.89;100683.85;103456;1285;75189;-83
2023/05/21 09:12:50;;;;;;;;;;;;;;;21.05;45.98;100699.59;103541;1285;62108;-82
2023/05/21 09:15:15;;;;;;;;;;;;;;;21.05;46.00;100692.98;102940;1294;62141;-82
2023/05/21 09:17:41;;;;;;;;;;;;;;;21.05;45.92;100697.23;102774;1294;63143;-83
2023/05/21 09:20:13;;;;;;;;;;;;;;;21.05;45.98;100698.15;102795;1294;63261;-83
2023/05/21 09:22:40;;;;;;;;;;;;;;;21.05;46.01;100694.02;102840;1299;62426;-82
2023/05/21 09:25:09;;;;;;;;;;;;;;;21.05;45.88;100695.45;102830;1294;62319;-82
2023/05/21 09:27:35;;;;;;;;;;;;;;;21.05;46.08;100694.21;102745;1296;72568;-83
2023/05/21 09:30:01;;;;;;;;;;;;;;;21.04;45.92;100694.41;102839;1293;62314;-82
2023/05/21 09:32:27;;;;;;;;;;;;;;;21.05;45.88;100691.20;102861;1294;62199;-83
2023/05/21 09:34:53;;;;;;;;;;;;;;;21.05;45.90;100699.05;102812;1294;62374;-82
2023/05/21 09:37:18;;;;;;;;;;;;;;;21.04;46.05;100694.99;102819;1299;63305;-83
2023/05/21 09:39:46;;;;;;;;;;;;;;;21.04;45.99;100697.87;102814;1294;63586;-83
2023/05/21 09:42:12;;;;;;;;;;;;;;;21.04;46.07;100698.61;102733;1294;76124;-83
2023/05/21 09:44:38;;;;;;;;;;;;;;;21.03;46.15;100700.05;102752;1296;62219;-83
2023/05/21 09:47:04;;;;;;;;;;;;;;;21.03;46.03;100691.50;102772;1296;62165;-82
2023/05/21 09:49:30;;;;;;;;;;;;;;;21.04;46.01;100692.17;102809;1294;63647;-83
2023/05/21 09:52:02;;;;;;;;;;;;;;;21.04;46.08;100686.63;102777;1298;62128;-83
2023/05/21 09:54:31;;;;;;;;;;;;;;;21.04;46.00;100684.66;103701;1288;62111;-84
2023/05/21 09:57:03;;;;;;;;;;;;;;;21.04;45.99;100685.73;103638;1286;62803;-83
2023/05/21 09:59:36;;;;;;;;;;;;;;;21.04;46.01;100691.60;103470;1285;72827;-82
2023/05/21 10:02:02;;;;;;;;;;;;;;;21.03;45.99;100691.84;103571;1285;76205;-83
2023/05/21 10:04:29;;;;;;;;;;;;;;;21.04;45.91;100693.77;103381;1292;62255;-83
2023/05/21 10:06:55;;;;;;;;;;;;;;;21.03;45.87;100688.08;103514;1285;62111;-83
2023/05/21 10:09:21;;;;;;;;;;;;;;;21.04;45.81;100692.14;103482;1285;63344;-83
2023/05/21 10:11:46;;;;;;;;;;;;;;;21.04;46.04;100690.93;103547;1285;62131;-82
2023/05/21 10:14:15;;;;;;;;;;;;;;;21.03;45.83;100688.44;103493;1291;62191;-83
2023/05/21 10:16:41;;;;;;;;;;;;;;;21.04;45.91;100690.92;103484;1285;62461;-83
2023/05/21 10:19:09;;;;;;;;;;;;;;;21.03;45.99;100685.92;103553;1285;63327;-82
2023/05/21 10:21:35;;;;;;;;;;;;;;;21.03;45.93;100691.83;103454;1291;74971;-83
2023/05/21 10:24:01;;;;;;;;;;;;;;;21.04;45.95;100689.31;103623;1286;62324;-83
2023/05/21 10:26:27;;;;;;;;;;;;;;;21.03;45.93;100689.71;103583;1288;62123;-82
2023/05/21 10:28:52;;;;;;;;;;;;;;;21.03;45.93;100688.61;103517;1285;62290;-82
2023/05/21 10:31:18;;;;;;;;;;;;;;;21.04;45.95;100689.14;103576;1285;62191;-82
2023/05/21 10:33:43;;;;;;;;;;;;;;;21.04;45.98;100689.13;103539;1291;62296;-83
2023/05/21 10:36:12;;;;;;;;;;;;;;;21.04;45.98;100692.50;103401;1291;62101;-82
2023/05/21 10:38:39;;;;;;;;;;;;;;;21.04;45.85;100691.58;103563;1285;62200;-83
2023/05/21 10:41:05;;;;;;;;;;;;;;;21.04;45.91;100686.45;103584;1285;62271;-82
2023/05/21 10:43:43;;;;;;;;;;;;;;;21.04;45.83;100685.90;103589;1291;62205;-82
2023/05/21 10:46:27;;;;;;;;;;;;;;;21.04;46.00;100693.77;103545;1288;62210;-83
2023/05/21 10:49:05;;;;;;;;;;;;;;;21.04;45.89;100690.73;103644;1286;62223;-82
2023/05/21 10:51:49;;;;;;;;;;;;;;;21.04;45.82;100686.98;103759;1285;72458;-82
2023/05/21 10:54:21;;;;;;;;;;;;;;;21.04;45.81;100694.45;103799;1284;76355;-84
2023/05/21 10:56:49;;;;;;;;;;;;;;;21.04;45.87;100689.83;103879;1284;62287;-82
2023/05/21 10:59:27;;;;;;;;;;;;;;;21.04;45.95;100689.77;103925;1285;62207;-83
2023/05/21 11:01:54;;;;;;;;;;;;;;;21.05;45.96;100684.59;103944;1284;72456;-82
2023/05/21 11:04:25;;;;;;;;;;;;;;;21.04;45.89;100687.11;103824;1291;62188;-82
2023/05/21 11:06:50;;;;;;;;;;;;;;;21.05;45.87;100692.61;103458;1284;62248;-83
2023/05/21 11:09:16;;;;;;;;;;;;;;;21.05;45.93;100691.89;103625;1291;62268;-83
2023/05/21 11:11:47;;;;;;;;;;;;;;;21.06;45.87;100688.99;103665;1285;62270;-83
2023/05/21 11:14:26;;;;;;;;;;;;;;;21.06;45.86;100689.89;103503;1286;76134;-83
2023/05/21 11:16:51;;;;;;;;;;;;;;;21.06;45.85;100683.59;103619;1284;62692;-83
2023/05/21 11:19:17;;;;;;;;;;;;;;;21.06;45.74;100682.32;103603;1286;63365;-83
2023/05/21 11:21:42;;;;;;;;;;;;;;;21.06;45.76;100685.92;103522;1290;62177;-82
2023/05/21 11:24:09;;;;;;;;;;;;;;;21.07;45.82;100687.84;103469;1291;62174;-82
2023/05/21 11:27:08;;;;;;;;;;;;;;;21.06;45.72;100681.59;103488;1286;62365;-83
2023/05/21 11:29:43;;;;;;;;;;;;;;;21.06;45.74;100677.67;102984;1297;62799;-82
2023/05/21 11:32:09;;;;;;;;;;;;;;;21.06;45.71;100673.35;103058;1291;73367;-83
2023/05/21 11:34:44;;;;;;;;;;;;;;;21.07;45.76;100680.14;102902;1291;62197;-83
2023/05/21 11:37:16;;;;;;;;;;;;;;;21.07;45.73;100677.45;102986;1292;63278;-83
2023/05/21 11:39:45;;;;;;;;;;;;;;;21.07;45.74;100668.67;102931;1291;62120;-83
2023/05/21 11:42:11;;;;;;;;;;;;;;;21.07;45.63;100669.56;102904;1296;72447;-83
2023/05/21 11:44:38;;;;;;;;;;;;;;;21.07;45.70;100672.38;102882;1291;62281;-83
2023/05/21 11:47:04;;;;;;;;;;;;;;;21.07;45.77;100671.86;103001;1291;63414;-82
2023/05/21 11:49:30;;;;;;;;;;;;;;;21.07;45.71;100669.19;103240;1291;62210;-83
2023/05/21 11:51:56;;;;;;;;;;;;;;;21.08;45.64;100668.97;102882;1291;62085;-83
2023/05/21 11:54:22;;;;;;;;;;;;;;;21.08;45.63;100668.23;103001;1297;63486;-82
2023/05/21 11:56:48;;;;;;;;;;;;;;;21.08;45.64;100665.92;102971;1291;63230;-82
2023/05/21 11:59:15;;;;;;;;;;;;;;;21.08;45.71;100668.20;102928;1296;63312;-83
2023/05/21 12:01:42;;;;;;;;;;;;;;;21.09;45.61;100659.02;102885;1292;63352;-82
2023/05/21 12:04:10;;;;;;;;;;;;;;;21.09;45.49;100657.42;103020;1296;62211;-82
2023/05/21 12:06:36;;;;;;;;;;;;;;;21.09;45.62;100650.96;103418;1286;62195;-83
2023/05/21 12:09:03;;;;;;;;;;;;;;;21.10;45.69;100650.59;103495;1291;63258;-83
2023/05/21 12:11:29;;;;;;;;;;;;;;;21.10;45.71;100646.98;103554;1285;63345;-82
2023/05/21 12:13:55;;;;;;;;;;;;;;;21.10;45.65;100647.34;103452;1291;62284;-81
2023/05/21 12:16:21;;;;;;;;;;;;;;;21.10;45.69;100648.56;103608;1285;62209;-82
2023/05/21 12:18:47;;;;;;;;;;;;;;;21.10;45.77;100645.69;103533;1286;62213;-82
2023/05/21 12:21:12;;;;;;;;;;;;;;;21.11;45.71;100633.49;103561;1286;62179;-83
2023/05/21 12:23:38;;;;;;;;;;;;;;;21.11;45.64;100642.81;103590;1285;63359;-83
2023/05/21 12:26:04;;;;;;;;;;;;;;;21.11;45.62;100635.61;103881;1285;62201;-82